Time;durP1;ratioP1;P1;durP2;ratioP2;P2;SDS_P1;SDS_P2;PMS_P1;PMS_P2;Temp;Humidity;BMP_temperature;BMP_pressure;BME280_temperature;BME280_humidity;BME280_pressure;Samples;Min_cycle;Max_cycle;Signal;HPM_P1;HPM_P2
2022/08/24 00:01:42;;;;;;;6.47;4.22;;;19.60;99.90;;;;;;4974220;28;20047;-79
2022/08/24 00:04:28;;;;;;;7.43;4.03;;;19.60;99.90;;;;;;4974538;28;20042;-81
2022/08/24 00:07:14;;;;;;;8.32;4.25;;;19.60;99.90;;;;;;4975192;28;20465;-81
2022/08/24 00:10:00;;;;;;;4.88;3.47;;;19.50;99.90;;;;;;4973945;28;20054;-80
2022/08/24 00:12:48;;;;;;;8.35;4.55;;;19.40;99.90;;;;;;4975214;28;20507;-80
2022/08/24 00:15:35;;;;;;;5.80;3.90;;;19.40;99.90;;;;;;4972936;28;20050;-80
2022/08/24 00:18:22;;;;;;;7.40;3.70;;;19.40;99.90;;;;;;4956430;28;20441;-79
2022/08/24 00:21:08;;;;;;;8.50;3.83;;;19.40;99.90;;;;;;4956524;28;20422;-80
2022/08/24 00:23:54;;;;;;;7.95;4.28;;;19.30;99.90;;;;;;4972466;28;20043;-82
2022/08/24 00:26:41;;;;;;;5.32;3.42;;;19.30;99.90;;;;;;4973357;28;20490;-81
2022/08/24 00:29:27;;;;;;;8.00;4.20;;;19.20;99.90;;;;;;4975153;28;20046;-81
2022/08/24 00:32:13;;;;;;;7.88;3.95;;;19.20;99.90;;;;;;4961115;28;20517;-81
2022/08/24 00:35:00;;;;;;;7.20;4.43;;;19.20;99.90;;;;;;4956649;28;20055;-82
2022/08/24 00:37:50;;;;;;;5.97;4.22;;;19.20;99.90;;;;;;4974224;28;20050;-80
2022/08/24 00:40:48;;;;;;;6.30;3.65;;;19.20;99.90;;;;;;4983854;28;20471;-80
2022/08/24 00:43:34;;;;;;;7.95;4.25;;;19.10;99.90;;;;;;4992600;28;20043;-80
2022/08/24 00:46:29;;;;;;;8.15;4.25;;;19.10;99.90;;;;;;4993472;28;20050;-80
2022/08/24 00:49:42;;;;;;;6.35;3.65;;;19.10;99.90;;;;;;4993016;28;20046;-80
2022/08/24 00:52:32;;;;;;;6.65;3.60;;;19.10;99.90;;;;;;4993896;28;20057;-79
2022/08/24 00:55:25;;;;;;;7.78;3.67;;;19.10;99.90;;;;;;4993135;28;20057;-80
2022/08/24 00:58:19;;;;;;;7.53;3.92;;;19.00;99.90;;;;;;4993084;28;20051;-80
2022/08/24 01:01:08;;;;;;;6.20;3.45;;;19.00;99.90;;;;;;4992909;28;20054;-81
2022/08/24 01:03:57;;;;;;;8.90;4.47;;;19.00;99.90;;;;;;4976149;28;20189;-80
2022/08/24 01:06:44;;;;;;;7.22;3.85;;;18.90;99.90;;;;;;4994283;28;20426;-79
2022/08/24 01:09:30;;;;;;;6.82;4.10;;;18.90;99.90;;;;;;4980871;28;20075;-80
2022/08/24 01:12:17;;;;;;;9.80;4.28;;;18.80;99.90;;;;;;4996775;28;20405;-80
2022/08/24 01:15:06;;;;;;;8.75;4.97;;;18.80;99.90;;;;;;4978973;28;20046;-79
2022/08/24 01:21:18;;;;;;;7.65;4.85;;;18.70;99.90;;;;;;4992965;28;20090;-79
2022/08/24 01:24:10;;;;;;;7.13;4.50;;;18.70;99.90;;;;;;4993826;28;20042;-80
2022/08/24 01:26:57;;;;;;;8.95;4.70;;;18.70;99.90;;;;;;4992320;28;20050;-79
2022/08/24 01:29:45;;;;;;;6.93;4.50;;;18.70;99.90;;;;;;4977829;28;20054;-80
2022/08/24 01:32:32;;;;;;;10.25;6.72;;;18.70;99.90;;;;;;4991794;28;20048;-80
2022/08/24 01:35:18;;;;;;;8.63;7.03;;;18.70;99.90;;;;;;4992614;28;20082;-78
2022/08/24 01:38:10;;;;;;;10.85;5.22;;;18.70;99.90;;;;;;4991802;28;20098;-80
2022/08/24 01:41:01;;;;;;;8.65;5.85;;;18.60;99.90;;;;;;4991337;28;20577;-80
2022/08/24 01:43:51;;;;;;;7.75;5.28;;;18.60;99.90;;;;;;4974110;28;20486;-82
2022/08/24 01:46:37;;;;;;;7.82;5.10;;;18.60;99.90;;;;;;4991420;28;20058;-80
2022/08/24 01:49:26;;;;;;;9.15;4.90;;;18.60;99.90;;;;;;4975232;28;20058;-79
2022/08/24 01:52:19;;;;;;;8.50;5.78;;;18.50;99.90;;;;;;4975000;28;20058;-79
2022/08/24 01:55:08;;;;;;;11.52;6.07;;;18.50;99.90;;;;;;4991785;28;20470;-81
2022/08/24 01:57:54;;;;;;;8.55;4.85;;;18.50;99.90;;;;;;4991505;28;20100;-79
2022/08/24 02:00:42;;;;;;;9.05;6.47;;;18.50;99.90;;;;;;4991151;28;20050;-79
2022/08/24 02:03:28;;;;;;;7.13;5.00;;;18.50;99.90;;;;;;4991966;28;20121;-80
2022/08/24 02:06:17;;;;;;;9.35;6.72;;;18.60;99.90;;;;;;4991168;28;20126;-80
2022/08/24 02:09:05;;;;;;;15.95;9.23;;;18.50;99.90;;;;;;4992051;28;20046;-79
2022/08/24 02:11:51;;;;;;;8.05;5.13;;;18.60;99.90;;;;;;4975013;28;20490;-79
2022/08/24 02:14:38;;;;;;;11.27;6.63;;;18.60;99.90;;;;;;4993987;28;20050;-81
2022/08/24 02:17:27;;;;;;;11.02;6.97;;;18.50;99.90;;;;;;4996241;28;20050;-79
2022/08/24 02:20:17;;;;;;;9.65;6.60;;;18.50;99.90;;;;;;4978656;28;20073;-80
2022/08/24 02:23:05;;;;;;;12.15;6.45;;;18.40;99.90;;;;;;4994795;28;20146;-78
2022/08/24 02:25:51;;;;;;;10.02;6.22;;;18.40;99.90;;;;;;4995146;28;20050;-79
2022/08/24 02:28:38;;;;;;;9.88;6.28;;;18.40;99.90;;;;;;4994827;28;20050;-79
2022/08/24 02:31:25;;;;;;;8.73;6.35;;;18.30;99.90;;;;;;4994911;28;20100;-79
2022/08/24 02:34:11;;;;;;;10.82;6.68;;;18.30;99.90;;;;;;4995860;28;20049;-79
2022/08/24 02:36:58;;;;;;;10.80;8.15;;;18.30;99.90;;;;;;4977095;28;20065;-80
2022/08/24 02:39:45;;;;;;;10.80;8.23;;;18.30;99.90;;;;;;4994025;28;20054;-79
2022/08/24 02:42:31;;;;;;;10.27;8.02;;;18.30;99.90;;;;;;4995402;28;20177;-78
2022/08/24 02:45:18;;;;;;;8.30;6.70;;;18.30;99.90;;;;;;4994234;28;20042;-80
2022/08/24 02:48:04;;;;;;;9.75;7.03;;;18.30;99.90;;;;;;4977115;28;20086;-80
2022/08/24 02:50:51;;;;;;;11.13;7.43;;;18.30;99.90;;;;;;4994401;28;20050;-77
2022/08/24 02:53:38;;;;;;;10.30;7.70;;;18.30;99.90;;;;;;4978375;28;20061;-78
2022/08/24 02:56:25;;;;;;;11.02;8.65;;;18.30;99.90;;;;;;4994769;28;20474;-78
2022/08/24 02:59:12;;;;;;;11.88;8.30;;;18.30;99.90;;;;;;4995157;28;20438;-79
2022/08/24 03:01:58;;;;;;;12.80;9.90;;;18.20;99.90;;;;;;4977039;28;20533;-78
2022/08/24 03:04:45;;;;;;;11.15;7.38;;;18.20;99.90;;;;;;4994068;28;20100;-79
2022/08/24 03:07:31;;;;;;;11.13;8.50;;;18.20;99.90;;;;;;4976355;28;20058;-79
2022/08/24 03:10:18;;;;;;;15.13;11.18;;;18.20;99.90;;;;;;4964361;28;20061;-80
2022/08/24 03:13:05;;;;;;;11.25;8.20;;;18.20;99.90;;;;;;4977274;28;20050;-79
2022/08/24 03:15:51;;;;;;;11.02;7.80;;;18.20;99.90;;;;;;4995681;28;20401;-79
2022/08/24 03:18:38;;;;;;;11.90;9.18;;;18.10;99.90;;;;;;4976410;28;20050;-80
2022/08/24 03:21:25;;;;;;;14.52;9.85;;;18.10;99.90;;;;;;4976497;28;20058;-79
2022/08/24 03:24:12;;;;;;;11.40;7.50;;;18.10;99.90;;;;;;4994295;28;20046;-81
2022/08/24 03:26:58;;;;;;;12.18;7.28;;;18.10;99.90;;;;;;4976504;28;20501;-79
2022/08/24 03:29:44;;;;;;;10.82;8.15;;;18.00;99.90;;;;;;4994587;28;20547;-80
2022/08/24 03:32:31;;;;;;;10.52;7.10;;;18.00;99.90;;;;;;4993480;28;20461;-80
2022/08/24 03:35:20;;;;;;;11.90;7.30;;;18.00;99.90;;;;;;4994378;28;20056;-80
2022/08/24 03:38:07;;;;;;;10.55;7.72;;;18.00;99.90;;;;;;4979294;28;20109;-81
2022/08/24 03:40:53;;;;;;;9.13;7.20;;;17.90;99.90;;;;;;4993774;28;20608;-78
2022/08/24 03:43:46;;;;;;;9.15;6.70;;;17.90;99.90;;;;;;4976646;28;20069;-80
2022/08/24 03:46:35;;;;;;;9.68;5.88;;;17.90;99.90;;;;;;4994521;28;20112;-77
2022/08/24 03:49:22;;;;;;;11.43;8.55;;;17.90;99.90;;;;;;4980251;28;20203;-79
2022/08/24 03:52:08;;;;;;;12.65;7.68;;;17.90;99.90;;;;;;4994240;28;20046;-77
2022/08/24 03:54:55;;;;;;;9.38;7.38;;;17.90;99.90;;;;;;4993489;28;20046;-79
2022/08/24 03:57:41;;;;;;;10.38;7.00;;;17.80;99.90;;;;;;4993660;28;20050;-78
2022/08/24 04:00:27;;;;;;;10.10;7.75;;;17.80;99.90;;;;;;4976625;28;20065;-79
2022/08/24 04:03:14;;;;;;;9.88;5.95;;;17.80;99.90;;;;;;4993011;28;20131;-79
2022/08/24 04:06:00;;;;;;;8.20;6.55;;;17.80;99.90;;;;;;4993175;28;20439;-79
2022/08/24 04:08:47;;;;;;;7.35;5.72;;;17.80;99.90;;;;;;4993427;28;20449;-80
2022/08/24 04:11:34;;;;;;;11.70;9.60;;;17.70;99.90;;;;;;4994253;28;20058;-78
2022/08/24 04:14:20;;;;;;;16.35;11.77;;;17.70;99.90;;;;;;4992894;28;20414;-79
2022/08/24 04:17:06;;;;;;;14.80;10.23;;;17.70;99.90;;;;;;4976683;28;20553;-79
2022/08/24 04:19:58;;;;;;;17.38;12.88;;;17.70;99.90;;;;;;4992393;28;20066;-80
2022/08/24 04:22:45;;;;;;;15.25;11.75;;;17.70;99.90;;;;;;4993799;28;20097;-79
2022/08/24 04:25:37;;;;;;;24.58;16.50;;;17.80;99.90;;;;;;4992265;28;20111;-79
2022/08/24 04:28:23;;;;;;;16.67;13.82;;;17.70;99.90;;;;;;4993057;28;20050;-79
2022/08/24 04:31:09;;;;;;;17.33;13.95;;;17.70;99.90;;;;;;4975990;28;20083;-80
2022/08/24 04:34:02;;;;;;;15.45;12.55;;;17.80;99.90;;;;;;5383303;23;20062;-79
2022/08/24 04:36:48;;;;;;;11.68;9.90;;;17.70;99.90;;;;;;4972268;28;20043;-79
2022/08/24 04:39:35;;;;;;;16.50;12.88;;;17.80;99.90;;;;;;4973634;28;20078;-80
2022/08/24 04:42:21;;;;;;;22.55;17.08;;;17.80;99.90;;;;;;4973449;28;20074;-80
2022/08/24 04:45:08;;;;;;;25.10;20.20;;;17.80;99.90;;;;;;4972610;28;20193;-79
2022/08/24 04:47:54;;;;;;;24.13;19.50;;;17.90;99.90;;;;;;4973550;28;20410;-80
2022/08/24 04:50:42;;;;;;;22.63;18.60;;;17.90;99.90;;;;;;4972792;28;20043;-79
2022/08/24 04:53:29;;;;;;;20.00;14.25;;;17.90;99.90;;;;;;4973443;28;20128;-79
2022/08/24 04:56:19;;;;;;;25.50;20.13;;;17.90;99.90;;;;;;4972839;28;20058;-81
2022/08/24 04:59:06;;;;;;;29.35;20.38;;;18.00;99.90;;;;;;4973454;28;20046;-80
2022/08/24 05:01:52;;;;;;;24.52;20.08;;;18.00;99.90;;;;;;4973085;28;20050;-80
2022/08/24 05:04:38;;;;;;;24.02;20.63;;;18.00;99.90;;;;;;4973455;28;20500;-79
2022/08/24 05:07:25;;;;;;;21.45;16.58;;;18.00;99.90;;;;;;4971989;28;20541;-81
2022/08/24 05:10:11;;;;;;;24.67;19.25;;;18.00;99.90;;;;;;4970365;28;20053;-79
2022/08/24 05:12:57;;;;;;;33.08;24.40;;;18.00;99.90;;;;;;4972061;28;20506;-80
2022/08/24 05:15:46;;;;;;;29.05;22.27;;;18.10;99.90;;;;;;4972055;28;20399;-80
2022/08/24 05:18:32;;;;;;;24.83;20.63;;;18.10;99.90;;;;;;4972998;28;20054;-79
2022/08/24 05:21:20;;;;;;;25.80;20.33;;;18.20;99.90;;;;;;4970629;28;20502;-79
2022/08/24 05:24:06;;;;;;;21.75;18.08;;;18.20;99.90;;;;;;4973153;28;20043;-80
2022/08/24 05:26:53;;;;;;;22.45;18.80;;;18.30;99.90;;;;;;4974211;28;20153;-80
2022/08/24 05:29:39;;;;;;;27.70;19.60;;;18.40;99.90;;;;;;4972173;28;20059;-79
2022/08/24 05:32:26;;;;;;;25.48;21.00;;;18.50;99.90;;;;;;4972076;28;20042;-80
2022/08/24 05:35:12;;;;;;;20.25;16.67;;;18.50;99.90;;;;;;4971838;28;20043;-80
2022/08/24 05:37:58;;;;;;;22.50;19.55;;;18.60;99.90;;;;;;4972004;28;20043;-78
2022/08/24 05:40:44;;;;;;;30.42;23.98;;;18.70;99.90;;;;;;4974176;28;20043;-80
2022/08/24 05:43:31;;;;;;;37.60;27.80;;;18.80;99.90;;;;;;4974173;28;20058;-81
2022/08/24 05:46:17;;;;;;;27.52;21.75;;;18.90;99.90;;;;;;4971903;28;20051;-82
2022/08/24 05:49:04;;;;;;;32.22;25.48;;;19.00;99.90;;;;;;4971770;28;20124;-81
2022/08/24 05:51:51;;;;;;;29.98;23.88;;;19.10;99.90;;;;;;4971091;28;20089;-82
2022/08/24 05:54:37;;;;;;;28.00;21.42;;;19.20;99.90;;;;;;4970451;28;20447;-81
2022/08/24 05:57:25;;;;;;;29.77;22.38;;;19.30;99.90;;;;;;4970295;28;20149;-80
2022/08/24 06:00:11;;;;;;;28.67;23.73;;;19.40;99.90;;;;;;4971878;28;20055;-79
2022/08/24 06:02:58;;;;;;;28.33;23.33;;;19.50;99.90;;;;;;4972520;28;20102;-80
2022/08/24 06:05:47;;;;;;;31.13;25.98;;;19.60;99.90;;;;;;4971601;28;20130;-79
2022/08/24 06:08:35;;;;;;;29.98;24.60;;;19.70;99.90;;;;;;4971167;28;20061;-83
2022/08/24 06:11:26;;;;;;;34.28;25.10;;;19.90;99.90;;;;;;4970687;28;20051;-81
2022/08/24 06:14:16;;;;;;;25.67;22.05;;;20.00;99.90;;;;;;4971657;28;20099;-82
2022/08/24 06:17:04;;;;;;;31.45;23.55;;;20.10;99.90;;;;;;4971918;28;20086;-81
2022/08/24 06:19:50;;;;;;;31.83;26.10;;;20.20;99.90;;;;;;4972342;28;20103;-82
2022/08/24 06:22:37;;;;;;;29.23;24.45;;;20.30;99.90;;;;;;4969666;28;20511;-82
2022/08/24 06:28:31;;;;;;;30.23;23.10;;;20.60;99.90;;;;;;4971259;28;20058;-84
2022/08/24 06:31:20;;;;;;;35.53;23.23;;;20.70;99.90;;;;;;4972405;28;20593;-82
2022/08/24 06:34:08;;;;;;;28.98;24.45;;;20.90;99.90;;;;;;4970522;28;20050;-80
2022/08/24 06:36:55;;;;;;;30.33;22.55;;;21.00;99.90;;;;;;4971688;28;20081;-81
2022/08/24 06:39:41;;;;;;;30.45;23.00;;;21.10;99.90;;;;;;4970856;28;20039;-83
2022/08/24 06:42:28;;;;;;;22.80;17.13;;;21.30;99.90;;;;;;4972857;28;20194;-81
2022/08/24 06:45:14;;;;;;;31.80;19.33;;;21.40;99.90;;;;;;4970727;28;20113;-83
2022/08/24 06:48:00;;;;;;;20.70;17.02;;;21.60;99.90;;;;;;4972659;28;20047;-83
2022/08/24 06:50:47;;;;;;;25.65;18.45;;;21.70;99.90;;;;;;4971492;28;20042;-82
2022/08/24 06:53:33;;;;;;;21.40;17.05;;;21.80;99.90;;;;;;4971842;28;20497;-82
2022/08/24 06:56:19;;;;;;;23.67;17.85;;;21.90;99.90;;;;;;4970950;28;20054;-81
2022/08/24 06:59:05;;;;;;;21.45;17.30;;;22.00;99.90;;;;;;4970666;28;20054;-82
2022/08/24 07:01:53;;;;;;;23.15;16.98;;;22.10;99.90;;;;;;4977003;28;20426;-82
2022/08/24 07:04:39;;;;;;;20.27;15.90;;;22.20;99.90;;;;;;4975450;28;20058;-82
2022/08/24 07:07:26;;;;;;;22.42;17.17;;;22.30;99.90;;;;;;4974907;28;20109;-83
2022/08/24 07:10:12;;;;;;;22.85;17.23;;;22.40;99.90;;;;;;4978765;28;20053;-83
2022/08/24 07:13:04;;;;;;;21.30;16.52;;;22.50;99.90;;;;;;4981737;28;20054;-89
2022/08/24 07:15:53;;;;;;;20.27;14.57;;;22.60;99.90;;;;;;4971029;28;20046;-86
2022/08/24 07:18:39;;;;;;;17.10;14.20;;;22.70;99.90;;;;;;5006049;28;20114;-91
2022/08/24 07:21:27;;;;;;;19.48;14.70;;;22.90;99.90;;;;;;4974111;28;20525;-86
2022/08/24 07:24:13;;;;;;;16.85;14.88;;;23.00;99.90;;;;;;4963994;28;20557;-85
2022/08/24 07:26:59;;;;;;;24.33;15.82;;;23.00;99.90;;;;;;4975977;28;20070;-88
2022/08/24 07:29:46;;;;;;;18.30;12.95;;;23.10;99.90;;;;;;4988594;28;20054;-86
2022/08/24 07:32:32;;;;;;;22.83;13.50;;;23.40;99.90;;;;;;4989720;28;20113;-86
2022/08/24 07:35:21;;;;;;;17.63;12.73;;;23.50;99.90;;;;;;4984124;28;20050;-87
2022/08/24 07:38:11;;;;;;;16.25;12.15;;;23.60;99.90;;;;;;4975422;28;20110;-86
2022/08/24 07:41:01;;;;;;;17.55;12.20;;;23.80;99.90;;;;;;4962285;28;20050;-93
2022/08/24 07:43:49;;;;;;;16.17;12.40;;;23.80;99.90;;;;;;4968182;28;20086;-88
2022/08/24 07:46:36;;;;;;;15.80;11.70;;;23.90;99.90;;;;;;4970645;28;20055;-87
2022/08/24 07:49:23;;;;;;;15.63;11.27;;;24.10;99.90;;;;;;4977953;28;20058;-86
2022/08/24 07:52:12;;;;;;;16.83;12.25;;;24.30;99.90;;;;;;4984493;28;20050;-88
2022/08/24 07:54:58;;;;;;;19.00;13.07;;;24.40;99.90;;;;;;4968750;28;20053;-88
2022/08/24 07:57:46;;;;;;;16.10;12.18;;;24.50;99.90;;;;;;4974691;28;20064;-86
2022/08/24 08:00:32;;;;;;;17.13;10.20;;;24.50;99.90;;;;;;4972807;28;20487;-84
2022/08/24 08:03:20;;;;;;;14.95;11.05;;;24.70;99.90;;;;;;4973810;28;20043;-84
2022/08/24 08:06:08;;;;;;;17.55;11.77;;;24.80;99.90;;;;;;4973062;28;20234;-84
2022/08/24 08:08:55;;;;;;;16.23;11.32;;;25.00;99.90;;;;;;4977331;28;20042;-85
2022/08/24 08:11:41;;;;;;;15.93;10.43;;;25.10;99.90;;;;;;4973721;28;20163;-83
2022/08/24 08:14:27;;;;;;;17.02;12.43;;;25.30;99.90;;;;;;4973853;28;20046;-84
2022/08/24 08:17:15;;;;;;;13.68;10.63;;;25.30;99.90;;;;;;4973030;28;20129;-85
2022/08/24 08:20:06;;;;;;;14.07;10.05;;;25.40;99.90;;;;;;4972832;28;20043;-84
2022/08/24 08:26:00;;;;;;;13.05;10.65;;;25.60;99.90;;;;;;4975913;28;20043;-83
2022/08/24 08:28:47;;;;;;;17.95;11.13;;;25.60;99.90;;;;;;4973922;28;20054;-88
2022/08/24 08:31:33;;;;;;;10.85;8.65;;;25.70;99.90;;;;;;4973042;28;20491;-84
2022/08/24 08:34:20;;;;;;;13.98;9.95;;;25.90;99.90;;;;;;4973345;28;20059;-81
2022/08/24 08:37:06;;;;;;;13.13;8.23;;;26.00;99.90;;;;;;4972187;28;20513;-80
2022/08/24 08:39:53;;;;;;;12.00;8.88;;;26.20;99.90;;;;;;4978340;28;20059;-80
2022/08/24 08:43:00;;;;;;;13.82;7.88;;;26.30;99.90;;;;;;4979025;28;20130;-88
2022/08/24 08:46:14;;;;;;;14.10;8.73;;;26.40;99.90;;;;;;4965829;28;20380;-86
2022/08/24 08:49:06;;;;;;;11.32;8.30;;;26.50;99.90;;;;;;4975280;28;20050;-86
2022/08/24 08:52:13;;;;;;;13.25;8.75;;;26.60;99.90;;;;;;4974788;28;20057;-86
2022/08/24 08:55:34;;;;;;;12.38;9.05;;;26.70;99.90;;;;;;4974156;28;20050;-80
2022/08/24 08:58:26;;;;;;;11.77;6.70;;;26.80;99.90;;;;;;4974124;28;20502;-86
2022/08/24 09:01:18;;;;;;;7.18;5.63;;;26.90;99.90;;;;;;4972074;28;20089;-89
2022/08/24 09:04:26;;;;;;;11.15;6.90;;;27.00;99.90;;;;;;4972888;28;20578;-87
2022/08/24 09:07:40;;;;;;;13.50;7.38;;;27.10;99.90;;;;;;4973667;28;20043;-83
2022/08/24 09:10:45;;;;;;;7.88;5.43;;;27.20;99.90;;;;;;4971547;28;20043;-85
2022/08/24 09:13:31;;;;;;;10.68;5.85;;;27.50;99.90;;;;;;4977214;28;20046;-88
2022/08/24 09:16:26;;;;;;;8.43;5.03;;;27.60;99.90;;;;;;4975744;28;20109;-82
2022/08/24 09:20:10;;;;;;;9.90;5.38;;;27.80;99.70;;;;;;4972716;28;20077;-87
2022/08/24 09:23:16;;;;;;;9.02;5.22;;;28.00;99.80;;;;;;4953928;28;20053;-88
2022/08/24 09:26:26;;;;;;;8.63;5.38;;;28.10;99.20;;;;;;4952623;28;20055;-86
2022/08/24 09:29:16;;;;;;;9.15;6.20;;;28.10;98.50;;;;;;4970727;28;20043;-80
2022/08/24 09:32:55;;;;;;;11.48;5.07;;;28.00;98.30;;;;;;4972355;28;20043;-80
2022/08/24 09:35:50;;;;;;;9.25;5.65;;;28.10;98.40;;;;;;4954671;28;20063;-84
2022/08/24 09:39:00;;;;;;;10.05;5.68;;;28.40;98.10;;;;;;4952109;28;20062;-84
2022/08/24 09:42:22;;;;;;;10.70;5.40;;;28.50;97.90;;;;;;4972474;28;20047;-82
2022/08/24 09:45:35;;;;;;;8.63;5.82;;;28.70;97.70;;;;;;4947508;28;20194;-85
2022/08/24 09:49:04;;;;;;;9.57;5.15;;;28.80;97.10;;;;;;4974210;28;20058;-84
2022/08/24 09:51:53;;;;;;;13.90;4.70;;;28.80;97.10;;;;;;4974484;28;20053;-84
2022/08/24 09:54:52;;;;;;;6.03;3.88;;;29.20;97.00;;;;;;4978590;28;20105;-82
2022/08/24 09:58:10;;;;;;;11.13;4.72;;;29.50;97.10;;;;;;4980112;28;20055;-88
2022/08/24 10:01:20;;;;;;;9.30;4.70;;;29.70;96.10;;;;;;4976864;28;20098;-85
2022/08/24 10:04:30;;;;;;;9.25;4.85;;;29.90;96.10;;;;;;4975038;28;20121;-88
2022/08/24 10:07:35;;;;;;;8.18;4.15;;;30.10;95.10;;;;;;4979613;28;20049;-90
2022/08/24 10:10:26;;;;;;;8.20;3.45;;;30.10;95.50;;;;;;4976952;28;20043;-88
2022/08/24 10:13:37;;;;;;;9.27;3.10;;;29.90;95.50;;;;;;4974011;28;20133;-87
2022/08/24 10:16:37;;;;;;;5.47;2.83;;;30.20;96.10;;;;;;4977175;28;20053;-88
2022/08/24 10:19:42;;;;;;;6.28;2.92;;;30.70;95.00;;;;;;4978823;28;20514;-87
2022/08/24 10:22:39;;;;;;;;;;;30.90;95.00;;;;;;4973583;28;20462;-88
2022/08/24 10:25:43;;;;;;;4.30;2.00;;;30.70;94.50;;;;;;4973012;28;19922;-84
2022/08/24 10:28:40;;;;;;;9.55;2.58;;;31.10;94.70;;;;;;4980817;28;20063;-90
2022/08/24 10:31:41;;;;;;;5.88;2.35;;;31.00;94.00;;;;;;4982788;28;20081;-87
2022/08/24 10:34:46;;;;;;;6.10;2.85;;;30.90;94.10;;;;;;4977456;28;20055;-90
2022/08/24 10:41:31;;;;;;;6.47;2.35;;;30.70;94.10;;;;;;4958248;28;20066;-85
2022/08/24 10:45:02;;;;;;;4.75;2.40;;;31.10;94.50;;;;;;4983662;28;20353;-84
2022/08/24 10:48:15;;;;;;;4.38;2.20;;;31.00;93.60;;;;;;4986625;28;20057;-82
2022/08/24 10:51:01;;;;;;;5.43;2.72;;;31.40;93.00;;;;;;4986534;28;20042;-86
2022/08/24 10:53:50;;;;;;;7.40;2.80;;;31.00;93.30;;;;;;4983243;28;20058;-86
2022/08/24 10:57:21;;;;;;;5.32;2.22;;;31.20;92.90;;;;;;4982824;28;20051;-87
2022/08/24 11:00:14;;;;;;;4.07;2.20;;;31.50;92.50;;;;;;4964842;28;20147;-84
2022/08/24 11:03:12;;;;;;;4.68;2.08;;;31.50;93.00;;;;;;4977487;28;20043;-83
2022/08/24 11:05:58;;;;;;;4.00;1.83;;;31.80;92.30;;;;;;4975178;28;20138;-86
2022/08/24 11:09:19;;;;;;;6.32;2.58;;;31.60;92.90;;;;;;4974565;28;20490;-88
2022/08/24 11:12:20;;;;;;;3.97;1.85;;;31.70;92.00;;;;;;4975988;28;20046;-86
2022/08/24 11:15:22;;;;;;;5.80;2.47;;;31.70;92.80;;;;;;4974829;28;20043;-87
2022/08/24 11:18:09;;;;;;;5.13;2.53;;;31.60;92.30;;;;;;4977182;28;20062;-83
2022/08/24 11:20:55;;;;;;;5.53;2.55;;;32.10;92.70;;;;;;4982887;28;20051;-90
2022/08/24 11:23:42;;;;;;;6.70;2.35;;;32.30;92.30;;;;;;4972334;28;20109;-88
2022/08/24 11:26:28;;;;;;;5.72;2.63;;;32.30;91.90;;;;;;4975755;28;20062;-85
2022/08/24 11:29:15;;;;;;;4.30;1.98;;;32.20;91.60;;;;;;4974842;28;20067;-84
2022/08/24 11:32:01;;;;;;;5.75;2.40;;;32.30;92.00;;;;;;4972854;28;20508;-83
2022/08/24 11:34:47;;;;;;;5.25;1.70;;;33.10;91.70;;;;;;4974594;28;20550;-83
2022/08/24 11:37:36;;;;;;;3.58;1.65;;;33.40;91.30;;;;;;4973491;28;20090;-86
2022/08/24 11:40:29;;;;;;;4.80;1.70;;;33.00;91.00;;;;;;4975654;28;20046;-85
2022/08/24 11:43:21;;;;;;;5.13;1.55;;;33.20;90.30;;;;;;4974877;28;20570;-86
2022/08/24 11:46:26;;;;;;;3.63;1.40;;;33.30;89.80;;;;;;4986948;28;20050;-91
2022/08/24 11:49:25;;;;;;;2.72;1.10;;;33.80;90.40;;;;;;5003609;28;20062;-86
2022/08/24 11:52:37;;;;;;;5.65;1.73;;;34.70;89.90;;;;;;4986468;28;20129;-85
2022/08/24 11:55:38;;;;;;;5.88;1.75;;;34.70;85.70;;;;;;4990406;28;20054;-86
2022/08/24 11:58:52;;;;;;;3.65;1.35;;;35.20;85.60;;;;;;4988377;28;20050;-86
2022/08/24 12:01:58;;;;;;;2.15;1.00;;;36.00;83.60;;;;;;4984194;28;20066;-85
2022/08/24 12:05:05;;;;;;;3.90;1.40;;;36.10;82.70;;;;;;4989847;28;20078;-84
2022/08/24 12:08:09;;;;;;;5.82;1.55;;;36.50;78.80;;;;;;4995536;28;20050;-84
2022/08/24 12:11:05;;;;;;;2.30;1.10;;;36.40;78.30;;;;;;4981908;28;20058;-85
2022/08/24 12:13:58;;;;;;;3.63;1.13;;;36.50;79.10;;;;;;4980388;28;20062;-85
2022/08/24 12:16:55;;;;;;;8.07;2.58;;;36.90;77.90;;;;;;4980279;28;20039;-84
2022/08/24 12:19:54;;;;;;;4.93;3.10;;;36.70;81.50;;;;;;4991782;28;20047;-88
2022/08/24 12:22:42;;;;;;;6.70;3.40;;;37.40;80.80;;;;;;4982665;28;20042;-84
2022/08/24 12:28:49;;;;;;;5.70;2.00;;;37.60;78.30;;;;;;4985342;28;20042;-85
2022/08/24 12:31:41;;;;;;;9.18;7.28;;;37.90;78.00;;;;;;4983785;28;20049;-81
2022/08/24 12:34:39;;;;;;;5.68;2.85;;;37.20;76.90;;;;;;4976904;28;20054;-86
2022/08/24 12:37:56;;;;;;;4.97;2.85;;;36.80;78.10;;;;;;4981958;28;20050;-88
2022/08/24 12:40:55;;;;;;;9.27;2.88;;;37.00;78.50;;;;;;4977997;28;20074;-90
2022/08/24 12:43:49;;;;;;;9.48;3.65;;;37.40;80.10;;;;;;4986078;28;20474;-84
2022/08/24 12:46:36;;;;;;;8.70;4.25;;;37.70;76.00;;;;;;4990720;28;20117;-86
2022/08/24 12:49:29;;;;;;;7.75;3.35;;;36.70;76.70;;;;;;4989169;28;20585;-86
2022/08/24 12:52:21;;;;;;;8.18;4.28;;;36.10;77.90;;;;;;4989769;28;20046;-88
2022/08/24 12:55:49;;;;;;;7.50;3.50;;;35.70;79.60;;;;;;4986507;28;20065;-89
2022/08/24 12:58:44;;;;;;;5.60;2.97;;;36.30;80.10;;;;;;4989126;28;20147;-87
2022/08/24 13:01:45;;;;;;;7.60;4.90;;;36.40;78.50;;;;;;4984969;28;20059;-89
2022/08/24 13:04:55;;;;;;;5.20;3.17;;;36.10;78.40;;;;;;4969836;28;20046;-90
2022/08/24 13:07:47;;;;;;;6.80;4.38;;;35.40;79.40;;;;;;4982538;28;20061;-92
2022/08/24 13:10:39;;;;;;;7.32;3.75;;;34.70;80.70;;;;;;4984777;28;20100;-88
2022/08/24 13:13:57;;;;;;;8.73;3.30;;;35.10;82.10;;;;;;4983261;28;20062;-88
2022/08/24 13:17:05;;;;;;;6.55;3.20;;;35.50;81.10;;;;;;4981263;28;20518;-93
2022/08/24 13:20:34;;;;;;;6.95;4.20;;;35.20;81.00;;;;;;4980527;28;20112;-90
2022/08/24 13:23:22;;;;;;;7.30;3.63;;;36.40;80.60;;;;;;4982179;28;20078;-87
2022/08/24 13:26:27;;;;;;;4.22;2.85;;;38.00;76.40;;;;;;4986903;28;20077;-86
2022/08/24 13:29:15;;;;;;;6.93;3.63;;;39.30;74.90;;;;;;4962830;28;20046;-88
2022/08/24 13:32:01;;;;;;;6.72;3.25;;;39.90;71.70;;;;;;4971430;28;20513;-89
2022/08/24 13:34:50;;;;;;;6.43;3.40;;;40.60;70.20;;;;;;4970391;28;20143;-89
2022/08/24 13:37:37;;;;;;;6.60;2.58;;;40.90;68.90;;;;;;4982996;28;20589;-86
2022/08/24 13:40:26;;;;;;;5.07;3.25;;;41.60;67.20;;;;;;4972333;28;20042;-87
2022/08/24 13:43:19;;;;;;;6.03;3.47;;;41.60;65.40;;;;;;4973508;28;20042;-83
2022/08/24 13:46:38;;;;;;;5.15;2.83;;;42.00;64.70;;;;;;4970393;28;20054;-86
2022/08/24 13:49:43;;;;;;;6.40;4.07;;;42.40;64.50;;;;;;4960846;28;20101;-87
2022/08/24 13:52:42;;;;;;;6.95;4.30;;;43.00;62.50;;;;;;4966475;28;20058;-83
2022/08/24 13:55:40;;;;;;;8.38;3.85;;;43.50;60.10;;;;;;4969774;28;20138;-83
2022/08/24 13:58:56;;;;;;;7.20;3.35;;;43.50;58.70;;;;;;4971533;28;20643;-87
2022/08/24 14:02:15;;;;;;;5.43;3.05;;;43.30;59.10;;;;;;4970593;28;20138;-88
2022/08/24 14:05:23;;;;;;;6.50;3.58;;;43.40;58.60;;;;;;4971681;28;20086;-85
2022/08/24 14:08:31;;;;;;;6.90;3.45;;;43.90;57.60;;;;;;4970015;28;20046;-92
2022/08/24 14:11:46;;;;;;;10.05;3.63;;;44.20;57.30;;;;;;4976965;28;20039;-90
2022/08/24 14:15:03;;;;;;;7.43;4.07;;;44.10;55.50;;;;;;4959367;29;20055;-86
2022/08/24 14:18:06;;;;;;;7.03;2.53;;;42.40;56.20;;;;;;4958086;29;20047;-88
2022/08/24 14:20:55;;;;;;;4.57;2.22;;;41.30;59.10;;;;;;4959986;29;20062;-88
2022/08/24 14:23:58;;;;;;;5.50;2.80;;;42.20;59.60;;;;;;4977708;28;20053;-92
2022/08/24 14:26:44;;;;;;;8.10;4.10;;;42.90;57.90;;;;;;4975905;28;20406;-85
2022/08/24 14:29:34;;;;;;;6.20;3.47;;;43.20;56.50;;;;;;4979299;28;20047;-87
2022/08/24 14:32:28;;;;;;;7.60;2.63;;;43.30;56.10;;;;;;4975806;28;20133;-92
2022/08/24 14:35:43;;;;;;;4.57;2.60;;;43.60;55.60;;;;;;4972901;28;20050;-92
2022/08/24 14:38:44;;;;;;;5.35;2.65;;;43.60;55.30;;;;;;4969798;28;20094;-90
2022/08/24 14:41:45;;;;;;;7.18;2.40;;;43.40;55.40;;;;;;4975129;28;20051;-85
2022/08/24 14:45:01;;;;;;;6.13;2.65;;;43.70;54.90;;;;;;4971248;28;20046;-84
2022/08/24 14:47:56;;;;;;;4.68;2.10;;;43.80;54.10;;;;;;4971909;28;20050;-84
2022/08/24 14:51:06;;;;;;;6.20;3.05;;;44.10;54.10;;;;;;4974944;28;20051;-85
2022/08/24 14:54:18;;;;;;;5.07;2.75;;;43.90;52.80;;;;;;4972256;28;20043;-84
2022/08/24 14:57:40;;;;;;;6.55;3.20;;;43.80;52.90;;;;;;4960924;28;20494;-86
2022/08/24 15:01:13;;;;;;;7.32;3.17;;;43.80;53.10;;;;;;4974445;28;20065;-84
2022/08/24 15:04:30;;;;;;;8.45;4.85;;;43.90;52.70;;;;;;4976129;28;20515;-83
2022/08/24 15:07:27;;;;;;;7.38;3.25;;;43.80;52.30;;;;;;4984839;28;20139;-82
2022/08/24 15:10:14;;;;;;;5.68;3.20;;;43.80;52.90;;;;;;4990577;28;20502;-85
2022/08/24 15:13:06;;;;;;;8.70;4.20;;;43.80;52.80;;;;;;4994521;28;20042;-85